Time;durP1;ratioP1;P1;durP2;ratioP2;P2;SDS_P1;SDS_P2;PMS_P1;PMS_P2;Temp;Humidity;BMP_temperature;BMP_pressure;BME280_temperature;BME280_humidity;BME280_pressure;Samples;Min_cycle;Max_cycle;Signal;HPM_P1;HPM_P2
2021/12/25 00:00:44;;;;;;;21.02;10.65;;;7.40;99.90;;;;;;4994773;28;20030;-58
2021/12/25 00:03:10;;;;;;;20.30;9.23;;;7.40;99.90;;;;;;4994353;28;20105;-54
2021/12/25 00:05:35;;;;;;;18.70;9.80;;;7.30;99.90;;;;;;4994845;28;20027;-58
2021/12/25 00:08:01;;;;;;;15.68;8.63;;;7.30;99.90;;;;;;4993999;28;20038;-58
2021/12/25 00:10:30;;;;;;;13.70;8.00;;;7.30;99.90;;;;;;4994359;28;20022;-57
2021/12/25 00:12:56;;;;;;;14.20;7.63;;;7.30;99.90;;;;;;4994389;28;20500;-58
2021/12/25 00:15:22;;;;;;;14.43;8.07;;;7.20;99.90;;;;;;4994650;28;20026;-56
2021/12/25 00:17:48;;;;;;;15.95;8.02;;;7.20;99.90;;;;;;4994526;28;20121;-59
2021/12/25 00:20:14;;;;;;;14.88;8.65;;;7.20;99.90;;;;;;4994232;28;20399;-58
2021/12/25 00:22:39;;;;;;;16.27;7.70;;;7.10;99.90;;;;;;4993749;28;20117;-56
2021/12/25 00:25:06;;;;;;;16.10;7.80;;;7.10;99.90;;;;;;4994481;28;20124;-53
2021/12/25 00:27:58;;;;;;;11.38;6.93;;;7.20;99.90;;;;;;4994009;28;20030;-57
2021/12/25 00:30:28;;;;;;;13.77;8.00;;;7.20;99.90;;;;;;4994120;28;20029;-58
2021/12/25 00:35:20;;;;;;;12.05;7.22;;;7.30;99.90;;;;;;4993621;28;20034;-56
2021/12/25 00:37:45;;;;;;;10.68;6.20;;;7.30;99.90;;;;;;4994017;28;20109;-58
2021/12/25 00:40:12;;;;;;;10.85;6.72;;;7.30;99.90;;;;;;4993697;28;20125;-58
2021/12/25 00:42:38;;;;;;;7.55;4.68;;;7.30;99.90;;;;;;4993865;28;20297;-52
2021/12/25 00:45:04;;;;;;;9.98;5.30;;;7.30;99.90;;;;;;4993297;28;20377;-57
2021/12/25 00:47:29;;;;;;;8.98;5.03;;;7.20;99.90;;;;;;4992883;28;20065;-56
2021/12/25 00:49:55;;;;;;;5.78;4.22;;;7.20;99.90;;;;;;4993365;28;20061;-56
2021/12/25 00:52:20;;;;;;;7.03;4.22;;;7.20;99.90;;;;;;4994769;28;20101;-55
2021/12/25 00:54:46;;;;;;;8.00;3.78;;;7.20;99.90;;;;;;4993020;28;20066;-54
2021/12/25 00:57:12;;;;;;;7.00;3.70;;;7.10;99.90;;;;;;4993338;28;20072;-57
2021/12/25 00:59:37;;;;;;;5.03;3.10;;;7.10;99.90;;;;;;4992918;28;20071;-58
2021/12/25 01:02:03;;;;;;;6.93;3.40;;;7.10;99.90;;;;;;4993403;28;20125;-56
2021/12/25 01:04:28;;;;;;;6.53;3.20;;;7.00;99.90;;;;;;4992630;28;20042;-59
2021/12/25 01:06:54;;;;;;;5.18;3.33;;;7.00;99.90;;;;;;4992821;28;20465;-58
2021/12/25 01:09:20;;;;;;;8.65;3.00;;;7.00;99.90;;;;;;4993195;28;20077;-58
2021/12/25 01:11:48;;;;;;;4.60;2.63;;;7.00;99.90;;;;;;4993215;28;20030;-57
2021/12/25 01:14:37;;;;;;;6.05;2.63;;;7.00;99.90;;;;;;4993058;28;20031;-57
2021/12/25 01:35:37;;;;;;;7.85;2.97;;;6.80;99.90;;;;;;4992546;28;20045;-56
2021/12/25 01:41:12;;;;;;;4.38;3.17;;;6.90;99.90;;;;;;4992890;28;20116;-58
2021/12/25 01:49:06;;;;;;;7.32;3.45;;;6.90;99.90;;;;;;4992749;28;20029;-55
2021/12/25 01:51:32;;;;;;;7.15;3.45;;;6.90;99.90;;;;;;4992547;28;20022;-56
2021/12/25 01:53:58;;;;;;;5.20;3.33;;;6.90;99.90;;;;;;4991944;28;20105;-57
2021/12/25 01:56:23;;;;;;;4.70;3.20;;;6.90;99.90;;;;;;4991449;28;20114;-58
2021/12/25 01:58:49;;;;;;;4.57;3.17;;;6.90;99.90;;;;;;4992312;28;20030;-58
2021/12/25 02:01:15;;;;;;;9.77;4.03;;;6.90;99.90;;;;;;4992461;28;20027;-59
2021/12/25 02:03:41;;;;;;;5.20;3.30;;;6.80;99.90;;;;;;4992161;28;20085;-58
2021/12/25 02:06:10;;;;;;;6.82;3.20;;;6.80;99.90;;;;;;4992542;28;20130;-56
2021/12/25 02:08:38;;;;;;;5.50;3.60;;;6.80;99.90;;;;;;4992295;28;20110;-57
2021/12/25 02:11:05;;;;;;;5.90;3.60;;;6.70;99.90;;;;;;4991941;28;20026;-54
2021/12/25 02:13:31;;;;;;;6.95;3.95;;;6.80;99.90;;;;;;4992184;28;20045;-56
2021/12/25 02:15:58;;;;;;;4.38;2.58;;;6.80;99.90;;;;;;4992463;28;20058;-57
2021/12/25 02:18:42;;;;;;;6.40;3.15;;;6.80;99.90;;;;;;4992161;28;20034;-59
2021/12/25 02:21:12;;;;;;;4.63;3.25;;;6.80;99.90;;;;;;4992097;28;20543;-56
2021/12/25 02:23:38;;;;;;;5.68;3.13;;;6.70;99.90;;;;;;4991207;28;20046;-55
2021/12/25 02:26:05;;;;;;;4.50;3.05;;;6.70;99.90;;;;;;4991822;28;20038;-57
2021/12/25 02:28:31;;;;;;;4.78;3.10;;;6.70;99.90;;;;;;4991937;28;20469;-58
2021/12/25 02:31:02;;;;;;;4.45;2.90;;;6.70;99.90;;;;;;4991898;28;20038;-59
2021/12/25 02:33:28;;;;;;;5.95;2.88;;;6.60;99.90;;;;;;4991819;28;20560;-59
2021/12/25 02:35:55;;;;;;;6.47;4.05;;;6.60;99.90;;;;;;4991732;28;20423;-58
2021/12/25 02:38:21;;;;;;;5.13;3.45;;;6.60;99.90;;;;;;4991645;28;20468;-58
2021/12/25 02:40:46;;;;;;;7.13;3.70;;;6.60;99.90;;;;;;4991742;28;20049;-59
2021/12/25 02:43:12;;;;;;;8.70;3.97;;;6.60;99.90;;;;;;4991506;28;20026;-55
2021/12/25 02:45:39;;;;;;;5.78;3.75;;;6.60;99.90;;;;;;4991685;28;20030;-55
2021/12/25 02:48:10;;;;;;;4.35;3.47;;;6.50;99.90;;;;;;4991495;28;20039;-57
2021/12/25 02:50:38;;;;;;;9.75;3.90;;;6.50;99.90;;;;;;4991446;28;20030;-57
2021/12/25 02:53:07;;;;;;;5.53;4.10;;;6.50;99.90;;;;;;4991320;28;20117;-58
2021/12/25 02:55:33;;;;;;;7.97;4.40;;;6.50;99.90;;;;;;4991294;28;20030;-58
2021/12/25 02:57:59;;;;;;;6.60;3.95;;;6.50;99.90;;;;;;4991814;28;20054;-55
2021/12/25 03:00:31;;;;;;;6.38;4.25;;;6.50;99.90;;;;;;4991432;28;20057;-55
2021/12/25 03:03:00;;;;;;;5.10;3.70;;;6.40;99.90;;;;;;4991012;28;20033;-54
2021/12/25 03:05:26;;;;;;;4.85;3.72;;;6.40;99.90;;;;;;4991415;28;20026;-56
2021/12/25 03:07:51;;;;;;;6.90;4.00;;;6.40;99.90;;;;;;4991147;28;20026;-57
2021/12/25 03:10:18;;;;;;;6.05;4.13;;;6.40;99.90;;;;;;4991117;28;20026;-55
2021/12/25 03:12:52;;;;;;;8.18;4.60;;;6.30;99.90;;;;;;4991012;28;20033;-58
2021/12/25 03:15:28;;;;;;;6.47;4.72;;;6.30;99.90;;;;;;4991279;28;20026;-54
2021/12/25 03:17:55;;;;;;;7.95;4.60;;;6.30;99.90;;;;;;4991001;28;20137;-56
2021/12/25 03:20:21;;;;;;;7.15;4.78;;;6.30;99.90;;;;;;4991314;28;20640;-55
2021/12/25 03:22:46;;;;;;;7.30;4.38;;;6.20;99.90;;;;;;4990538;28;20041;-56
2021/12/25 03:25:14;;;;;;;9.02;4.78;;;6.20;99.90;;;;;;4991026;28;20041;-54
2021/12/25 03:27:42;;;;;;;11.15;5.00;;;6.20;99.90;;;;;;4990972;28;20093;-56
2021/12/25 03:30:08;;;;;;;9.82;5.50;;;6.20;99.90;;;;;;4990941;28;20027;-56
2021/12/25 03:32:35;;;;;;;7.25;5.13;;;6.20;99.90;;;;;;4989661;28;20038;-56
2021/12/25 03:35:01;;;;;;;11.77;5.15;;;6.20;99.90;;;;;;4991008;28;20442;-57
2021/12/25 03:37:27;;;;;;;9.02;5.43;;;6.10;99.90;;;;;;4990807;28;20127;-57
2021/12/25 03:39:53;;;;;;;6.72;4.97;;;6.20;99.90;;;;;;4991064;28;20129;-58
2021/12/25 03:42:18;;;;;;;7.28;4.88;;;6.20;99.90;;;;;;4991085;28;20410;-57
2021/12/25 03:44:45;;;;;;;9.68;4.40;;;6.20;99.90;;;;;;4990801;28;20038;-56
2021/12/25 03:47:22;;;;;;;5.55;4.10;;;6.30;99.90;;;;;;4990632;28;20034;-58
2021/12/25 03:58:05;;;;;;;7.13;3.95;;;6.20;99.90;;;;;;4990988;28;20408;-57
2021/12/25 04:00:32;;;;;;;7.10;3.53;;;6.20;99.90;;;;;;4991026;28;20092;-56
2021/12/25 04:03:03;;;;;;;4.82;3.60;;;6.10;99.90;;;;;;4990737;28;20031;-57
2021/12/25 04:05:32;;;;;;;4.10;3.45;;;6.10;99.90;;;;;;4990870;28;20068;-56
2021/12/25 04:08:05;;;;;;;5.18;3.63;;;6.10;99.90;;;;;;4990737;28;20030;-58
2021/12/25 04:10:35;;;;;;;5.07;3.80;;;6.00;99.90;;;;;;4990200;28;20033;-57
2021/12/25 04:13:03;;;;;;;6.82;3.50;;;6.00;99.90;;;;;;4990602;28;20484;-56
2021/12/25 04:15:28;;;;;;;4.45;3.65;;;6.00;99.90;;;;;;4990684;28;20492;-54
2021/12/25 04:17:54;;;;;;;5.72;3.97;;;6.00;99.90;;;;;;4990784;28;20084;-54
2021/12/25 04:20:20;;;;;;;6.68;3.63;;;6.00;99.90;;;;;;4992763;28;20037;-57
2021/12/25 04:22:56;;;;;;;6.63;4.22;;;5.90;99.90;;;;;;4993664;28;20037;-57
2021/12/25 04:25:27;;;;;;;4.30;3.38;;;5.90;99.90;;;;;;4994244;28;20137;-55
2021/12/25 04:27:54;;;;;;;6.45;4.80;;;5.90;99.90;;;;;;4994419;28;20034;-54
2021/12/25 04:30:36;;;;;;;10.65;4.25;;;5.90;99.90;;;;;;4994176;28;20018;-53
2021/12/25 05:05:26;;;;;;;6.10;4.47;;;5.60;99.90;;;;;;4993583;28;20030;-57
2021/12/25 05:07:51;;;;;;;7.25;4.88;;;5.60;99.90;;;;;;4993266;28;20550;-57
2021/12/25 05:10:17;;;;;;;6.50;4.45;;;5.60;99.90;;;;;;4993227;28;20089;-57
2021/12/25 05:12:42;;;;;;;6.80;4.70;;;5.60;99.90;;;;;;4993033;28;20033;-54
2021/12/25 05:15:08;;;;;;;7.47;4.95;;;5.60;99.90;;;;;;4993395;28;20084;-58
2021/12/25 05:17:34;;;;;;;9.23;4.78;;;5.60;99.90;;;;;;4993321;28;20062;-57
2021/12/25 05:20:00;;;;;;;7.18;5.30;;;5.60;99.90;;;;;;4993120;28;20054;-55
2021/12/25 05:22:26;;;;;;;8.80;4.90;;;5.50;99.90;;;;;;4993316;28;20026;-54
2021/12/25 05:24:52;;;;;;;8.98;5.55;;;5.50;99.90;;;;;;4992779;28;20033;-57
2021/12/25 05:27:18;;;;;;;7.53;5.50;;;5.40;99.90;;;;;;4993112;28;20027;-57
2021/12/25 05:29:46;;;;;;;7.38;5.15;;;5.40;99.90;;;;;;4993009;28;20487;-54
2021/12/25 05:32:17;;;;;;;7.88;5.55;;;5.40;99.90;;;;;;4992997;28;20061;-56
2021/12/25 05:34:43;;;;;;;9.57;6.28;;;5.30;99.90;;;;;;4992742;28;20033;-56
2021/12/25 05:37:09;;;;;;;11.50;5.95;;;5.30;99.90;;;;;;4992600;28;20038;-58
2021/12/25 05:39:34;;;;;;;8.90;6.03;;;5.30;99.90;;;;;;4992823;28;20022;-54
2021/12/25 05:42:00;;;;;;;10.50;6.35;;;5.20;99.90;;;;;;4992930;28;20026;-58
2021/12/25 05:44:26;;;;;;;12.85;6.80;;;5.30;99.90;;;;;;4992624;28;20034;-57
2021/12/25 05:46:52;;;;;;;13.40;6.75;;;5.20;99.90;;;;;;4992828;28;20080;-57
2021/12/25 05:49:18;;;;;;;9.70;6.03;;;5.20;99.90;;;;;;4992428;28;20022;-56
2021/12/25 05:51:43;;;;;;;11.35;6.90;;;5.20;99.90;;;;;;4993012;28;20171;-56
2021/12/25 05:54:09;;;;;;;12.70;7.28;;;5.10;99.90;;;;;;4992331;28;20028;-58
2021/12/25 05:56:35;;;;;;;11.30;5.85;;;5.10;99.90;;;;;;4992500;28;20101;-57
2021/12/25 05:59:00;;;;;;;12.60;7.80;;;5.10;99.90;;;;;;4992502;28;20391;-58
2021/12/25 06:01:27;;;;;;;12.77;7.18;;;5.10;99.90;;;;;;4992627;28;20080;-58
2021/12/25 06:03:53;;;;;;;12.55;6.97;;;5.10;99.90;;;;;;4991863;28;20571;-58
2021/12/25 06:06:19;;;;;;;12.63;6.90;;;5.10;99.90;;;;;;4992278;28;20034;-55
2021/12/25 06:08:44;;;;;;;11.15;7.40;;;5.10;99.90;;;;;;4992351;28;20057;-53
2021/12/25 06:11:10;;;;;;;14.45;8.10;;;5.10;99.90;;;;;;4992350;28;20053;-56
2021/12/25 06:13:44;;;;;;;12.90;7.45;;;5.00;99.90;;;;;;4991963;28;20023;-55
2021/12/25 06:16:10;;;;;;;10.27;6.68;;;5.00;99.90;;;;;;4992103;28;20285;-55
2021/12/25 06:18:35;;;;;;;15.48;7.82;;;5.00;99.90;;;;;;4992212;28;20481;-57
2021/12/25 06:21:01;;;;;;;14.68;7.25;;;5.00;99.90;;;;;;4992117;28;20018;-58
2021/12/25 06:23:29;;;;;;;13.07;7.00;;;5.00;99.90;;;;;;4991647;28;20026;-57
2021/12/25 06:25:55;;;;;;;12.48;6.97;;;5.00;99.90;;;;;;4991862;28;20101;-56
2021/12/25 06:28:22;;;;;;;13.00;7.10;;;5.00;99.90;;;;;;4991889;28;20053;-58
2021/12/25 06:30:49;;;;;;;13.55;6.55;;;5.00;99.90;;;;;;4992077;28;20105;-57
2021/12/25 06:33:15;;;;;;;15.13;7.53;;;5.00;99.90;;;;;;4991317;28;20026;-58
2021/12/25 06:35:40;;;;;;;11.57;6.38;;;5.00;99.90;;;;;;4991926;28;20030;-57
2021/12/25 06:38:06;;;;;;;14.07;7.65;;;4.90;99.90;;;;;;4991891;28;20062;-56
2021/12/25 06:40:32;;;;;;;12.25;6.50;;;4.90;99.90;;;;;;4991697;28;20034;-57
2021/12/25 06:42:57;;;;;;;9.98;6.15;;;4.90;99.90;;;;;;4991076;28;20042;-55
2021/12/25 06:45:23;;;;;;;12.15;6.38;;;5.00;99.90;;;;;;4991699;28;20031;-59
2021/12/25 06:47:48;;;;;;;12.30;6.03;;;4.90;99.90;;;;;;4991604;28;20594;-55
2021/12/25 06:50:23;;;;;;;9.05;6.13;;;4.90;99.90;;;;;;4991776;28;20108;-58
2021/12/25 06:52:49;;;;;;;12.73;6.28;;;4.90;99.90;;;;;;4991434;28;20041;-55
2021/12/25 06:55:15;;;;;;;11.45;6.28;;;4.90;99.90;;;;;;4991509;28;20023;-57
2021/12/25 06:57:53;;;;;;;13.30;6.65;;;4.90;99.90;;;;;;4991514;28;20023;-55
2021/12/25 07:00:19;;;;;;;10.43;6.32;;;4.90;99.90;;;;;;4991427;28;20112;-58
2021/12/25 07:02:45;;;;;;;9.73;5.57;;;4.80;99.90;;;;;;4991095;28;20030;-55
2021/12/25 07:05:11;;;;;;;10.45;5.38;;;4.80;99.90;;;;;;4991420;28;20450;-58
2021/12/25 07:07:37;;;;;;;7.50;4.65;;;4.90;99.90;;;;;;4991456;28;20026;-58
2021/12/25 07:10:03;;;;;;;7.10;4.30;;;4.80;99.90;;;;;;4990783;28;20041;-58
2021/12/25 07:12:31;;;;;;;8.63;5.07;;;4.80;99.90;;;;;;4991419;28;20419;-56
2021/12/25 07:14:57;;;;;;;10.25;4.85;;;4.80;99.90;;;;;;4990860;28;20038;-56
2021/12/25 07:17:23;;;;;;;8.75;4.43;;;4.80;99.90;;;;;;4991103;28;20825;-58
2021/12/25 07:19:48;;;;;;;6.65;3.78;;;4.80;99.90;;;;;;4991234;28;20073;-56
2021/12/25 07:22:14;;;;;;;6.38;2.72;;;4.80;99.90;;;;;;4991103;28;20084;-55
2021/12/25 07:24:39;;;;;;;5.15;3.30;;;4.60;99.90;;;;;;4990769;28;20041;-57
2021/12/25 07:27:05;;;;;;;5.05;3.50;;;4.60;99.90;;;;;;4991132;28;20080;-57
2021/12/25 07:29:31;;;;;;;4.55;3.15;;;4.60;99.90;;;;;;4991134;28;20439;-58
2021/12/25 07:31:57;;;;;;;4.72;3.47;;;4.60;99.90;;;;;;4991428;28;20093;-58
2021/12/25 07:34:23;;;;;;;5.00;3.50;;;4.50;99.90;;;;;;4991199;28;20026;-57
2021/12/25 07:36:48;;;;;;;5.18;3.53;;;4.40;99.90;;;;;;4990869;28;20058;-57
2021/12/25 07:39:14;;;;;;;6.50;3.22;;;4.40;99.90;;;;;;4990962;28;20105;-55
2021/12/25 07:41:39;;;;;;;5.97;3.10;;;4.40;99.90;;;;;;4990945;28;20073;-58
2021/12/25 07:44:05;;;;;;;4.90;3.35;;;4.40;99.90;;;;;;4990859;28;20027;-57
2021/12/25 07:46:32;;;;;;;7.78;3.10;;;4.30;99.90;;;;;;4991085;28;20026;-57
2021/12/25 07:48:58;;;;;;;6.20;3.10;;;4.30;99.90;;;;;;4990909;28;20062;-57
2021/12/25 07:51:24;;;;;;;6.55;3.53;;;4.30;99.90;;;;;;4990693;28;20076;-58
2021/12/25 07:53:49;;;;;;;5.47;3.53;;;4.30;99.90;;;;;;4990781;28;20162;-57
2021/12/25 07:56:15;;;;;;;5.57;3.28;;;4.20;99.90;;;;;;4993650;28;20033;-54
2021/12/25 07:58:42;;;;;;;3.95;2.80;;;4.20;99.90;;;;;;4994810;28;20030;-57
2021/12/25 08:01:09;;;;;;;3.30;2.47;;;4.20;99.90;;;;;;4994768;28;20069;-58
2021/12/25 08:03:35;;;;;;;4.15;2.75;;;4.20;99.90;;;;;;4994479;28;20125;-55
2021/12/25 08:06:01;;;;;;;3.17;2.53;;;4.20;99.90;;;;;;4994587;28;20421;-55
2021/12/25 08:08:27;;;;;;;3.40;2.47;;;4.10;99.90;;;;;;4994519;28;20404;-57
2021/12/25 08:10:52;;;;;;;5.78;3.50;;;4.10;99.90;;;;;;4994488;28;20037;-57
2021/12/25 08:13:18;;;;;;;4.82;2.80;;;4.00;99.90;;;;;;4994311;28;20472;-56
2021/12/25 08:15:44;;;;;;;3.67;2.78;;;4.00;99.90;;;;;;4994713;28;20432;-58
2021/12/25 08:18:10;;;;;;;5.43;3.42;;;4.00;99.90;;;;;;4994344;28;20030;-58
2021/12/25 08:20:36;;;;;;;3.88;2.97;;;3.90;99.90;;;;;;4994473;28;20033;-57
2021/12/25 08:23:02;;;;;;;4.18;2.95;;;3.80;99.90;;;;;;4993764;28;20117;-54
2021/12/25 08:25:28;;;;;;;5.05;3.55;;;3.80;99.90;;;;;;4993808;28;20034;-58
2021/12/25 08:27:53;;;;;;;5.57;3.50;;;3.80;99.90;;;;;;4994508;28;20064;-57
2021/12/25 08:30:21;;;;;;;4.28;3.05;;;3.80;99.90;;;;;;4994332;28;20075;-57
2021/12/25 08:32:50;;;;;;;4.43;2.90;;;3.70;99.90;;;;;;4994312;28;20472;-58
2021/12/25 08:35:17;;;;;;;4.22;2.80;;;3.70;99.90;;;;;;4994051;28;20018;-58
2021/12/25 08:37:44;;;;;;;3.83;2.63;;;3.70;99.90;;;;;;4994261;28;20121;-58
2021/12/25 08:40:12;;;;;;;3.30;2.22;;;3.70;99.90;;;;;;4994174;28;20471;-58
2021/12/25 08:42:45;;;;;;;3.63;2.60;;;3.70;99.90;;;;;;4994094;28;20084;-55
2021/12/25 08:45:30;;;;;;;3.47;2.50;;;3.60;99.90;;;;;;4994313;28;20507;-57
2021/12/25 08:47:56;;;;;;;4.07;2.72;;;3.50;99.90;;;;;;4994171;28;20038;-58
2021/12/25 08:50:21;;;;;;;4.45;2.85;;;3.50;99.90;;;;;;4994001;28;20041;-57
2021/12/25 08:52:47;;;;;;;2.65;1.95;;;3.60;99.90;;;;;;4993326;28;20101;-55
2021/12/25 08:55:12;;;;;;;2.50;1.95;;;3.50;99.90;;;;;;4993722;28;20026;-57
2021/12/25 08:57:38;;;;;;;3.17;1.95;;;3.50;99.90;;;;;;4993861;28;20038;-58
2021/12/25 09:00:04;;;;;;;2.08;1.40;;;3.40;99.90;;;;;;4993613;28;20038;-57
2021/12/25 09:02:30;;;;;;;2.88;1.88;;;3.50;99.90;;;;;;4993170;28;20041;-58
2021/12/25 09:04:55;;;;;;;3.65;2.38;;;3.40;99.90;;;;;;4993441;28;20030;-58
2021/12/25 09:07:21;;;;;;;2.13;1.67;;;3.40;99.90;;;;;;4993278;28;20041;-58
2021/12/25 09:09:47;;;;;;;2.00;1.50;;;3.30;99.90;;;;;;4993522;28;20033;-55
2021/12/25 09:12:15;;;;;;;2.35;1.58;;;3.40;99.90;;;;;;4993783;28;20034;-57
2021/12/25 09:14:42;;;;;;;1.73;1.38;;;3.40;99.90;;;;;;4993094;28;20026;-58
2021/12/25 09:17:08;;;;;;;1.52;1.40;;;3.40;99.90;;;;;;4993015;28;20035;-57
2021/12/25 09:19:34;;;;;;;2.30;1.45;;;3.40;99.90;;;;;;4993405;28;20045;-58
2021/12/25 09:22:00;;;;;;;1.50;1.23;;;3.40;99.90;;;;;;4993443;28;20113;-58
2021/12/25 09:24:26;;;;;;;3.17;1.45;;;3.50;99.90;;;;;;4992987;28;20128;-56
2021/12/25 09:26:52;;;;;;;2.83;1.70;;;3.40;99.90;;;;;;4993079;28;20129;-57
2021/12/25 09:29:18;;;;;;;1.85;1.42;;;3.40;99.90;;;;;;4993030;28;20109;-56
2021/12/25 09:31:43;;;;;;;2.83;2.10;;;3.40;99.90;;;;;;4993318;28;20027;-57
2021/12/25 09:34:09;;;;;;;3.70;1.80;;;3.50;99.90;;;;;;4992878;28;20023;-56
2021/12/25 09:36:36;;;;;;;1.42;1.10;;;3.40;99.90;;;;;;4992999;28;20121;-54
2021/12/25 09:39:05;;;;;;;3.88;1.83;;;3.30;99.90;;;;;;4992592;28;20030;-57
2021/12/25 09:41:32;;;;;;;2.58;1.40;;;3.40;99.90;;;;;;4992782;28;20407;-57
2021/12/25 09:43:59;;;;;;;2.05;1.10;;;3.40;99.90;;;;;;4992823;28;20042;-56
2021/12/25 09:46:25;;;;;;;2.28;1.60;;;3.40;99.90;;;;;;4992835;28;20103;-57
2021/12/25 09:48:50;;;;;;;1.98;1.13;;;3.40;99.90;;;;;;4992871;28;20423;-56
2021/12/25 09:51:17;;;;;;;1.73;1.00;;;3.40;99.90;;;;;;4992762;28;20026;-57
2021/12/25 09:53:42;;;;;;;1.70;1.27;;;3.40;99.90;;;;;;4992123;28;20037;-57
2021/12/25 09:56:08;;;;;;;2.00;1.40;;;3.50;99.90;;;;;;4992455;28;20034;-57
2021/12/25 09:58:34;;;;;;;1.80;1.33;;;3.40;99.90;;;;;;4992459;28;20086;-56
2021/12/25 10:00:59;;;;;;;1.30;0.90;;;3.40;99.90;;;;;;4992622;28;20118;-57
2021/12/25 10:03:42;;;;;;;1.95;1.40;;;3.40;99.90;;;;;;4992305;28;20061;-56
2021/12/25 10:06:08;;;;;;;0.77;0.77;;;3.50;99.90;;;;;;4991744;28;20046;-58
2021/12/25 10:08:39;;;;;;;2.65;1.80;;;3.50;99.90;;;;;;4991974;28;20117;-57
2021/12/25 10:11:05;;;;;;;1.13;0.98;;;3.50;99.90;;;;;;4992413;28;20038;-56
2021/12/25 10:13:35;;;;;;;1.38;1.00;;;3.60;99.90;;;;;;4991999;28;20034;-54
2021/12/25 10:16:26;;;;;;;1.35;1.13;;;3.60;99.90;;;;;;4992423;28;20365;-56
2021/12/25 10:18:53;;;;;;;1.92;1.33;;;3.60;99.90;;;;;;4991161;28;20030;-56
2021/12/25 10:21:22;;;;;;;1.60;1.08;;;3.60;99.90;;;;;;4992266;28;20038;-55
2021/12/25 10:24:13;;;;;;;1.77;1.08;;;3.60;99.90;;;;;;4991688;28;20038;-54
2021/12/25 10:26:40;;;;;;;3.33;1.02;;;3.70;99.90;;;;;;4991899;28;20046;-55
2021/12/25 10:29:26;;;;;;;1.27;1.02;;;3.80;99.90;;;;;;4992182;28;20091;-56
2021/12/25 10:31:54;;;;;;;1.20;0.70;;;3.70;99.90;;;;;;4992003;28;20034;-58
2021/12/25 10:34:22;;;;;;;1.13;0.80;;;3.80;99.90;;;;;;4991369;28;20038;-58
2021/12/25 10:36:49;;;;;;;1.92;1.30;;;3.70;99.90;;;;;;4991785;28;20041;-58
2021/12/25 10:39:19;;;;;;;1.33;0.93;;;3.80;99.90;;;;;;4991638;28;20081;-58
2021/12/25 10:42:10;;;;;;;1.27;0.90;;;3.80;99.90;;;;;;4991840;28;20034;-57
2021/12/25 10:44:48;;;;;;;1.73;1.15;;;3.70;99.90;;;;;;4991766;28;20034;-57
2021/12/25 10:47:20;;;;;;;1.70;0.85;;;3.60;99.90;;;;;;4991508;28;20030;-58
2021/12/25 10:49:51;;;;;;;1.80;1.15;;;3.70;99.90;;;;;;4991582;28;20022;-58
2021/12/25 10:52:19;;;;;;;1.25;0.90;;;3.70;99.90;;;;;;4991921;28;20057;-54
2021/12/25 10:54:49;;;;;;;1.23;1.13;;;3.60;99.90;;;;;;4991092;28;20093;-57
2021/12/25 10:57:40;;;;;;;1.70;0.93;;;3.70;99.90;;;;;;4991398;28;20439;-55
2021/12/25 11:00:09;;;;;;;1.27;0.63;;;3.60;99.90;;;;;;4991420;28;20038;-55
2021/12/25 11:02:40;;;;;;;1.88;1.08;;;3.60;99.90;;;;;;4991197;28;20057;-57
2021/12/25 11:05:50;;;;;;;1.55;1.00;;;3.60;99.90;;;;;;4991197;28;20097;-58
2021/12/25 11:08:21;;;;;;;2.85;1.20;;;3.60;99.90;;;;;;4990181;28;20042;-56
2021/12/25 11:10:48;;;;;;;0.88;0.80;;;3.60;99.90;;;;;;4991151;28;20069;-58
2021/12/25 11:13:22;;;;;;;2.75;1.25;;;3.60;99.90;;;;;;4991207;28;20050;-57
2021/12/25 11:15:49;;;;;;;;;;;3.70;99.90;;;;;;4991726;28;20030;-57
2021/12/25 11:18:15;;;;;;;2.05;1.10;;;3.70;99.90;;;;;;4990837;28;20338;-56
2021/12/25 11:20:44;;;;;;;1.70;1.10;;;3.70;99.90;;;;;;4990927;28;20034;-58
2021/12/25 11:23:11;;;;;;;3.75;1.60;;;3.70;99.90;;;;;;4990455;28;20077;-55
2021/12/25 11:25:38;;;;;;;2.83;1.60;;;3.80;99.90;;;;;;4990765;28;20034;-56
2021/12/25 11:28:09;;;;;;;1.50;1.00;;;3.80;99.90;;;;;;4991230;28;20065;-55
2021/12/25 11:30:37;;;;;;;1.45;1.08;;;3.80;99.90;;;;;;4997585;28;20027;-55
2021/12/25 11:33:03;;;;;;;2.25;1.40;;;3.80;99.90;;;;;;4997261;28;20113;-57
2021/12/25 11:35:33;;;;;;;2.63;1.40;;;3.80;99.90;;;;;;4997523;28;20065;-59
2021/12/25 11:38:00;;;;;;;1.98;1.40;;;3.90;99.90;;;;;;4997441;28;20117;-57
2021/12/25 11:40:28;;;;;;;1.58;1.20;;;3.90;99.90;;;;;;4997469;28;20033;-58
2021/12/25 11:42:57;;;;;;;3.10;1.33;;;3.90;99.90;;;;;;4997712;28;20112;-57
2021/12/25 11:45:35;;;;;;;2.33;1.02;;;3.80;99.90;;;;;;4997496;28;20396;-57
2021/12/25 11:48:12;;;;;;;1.95;1.25;;;3.80;99.90;;;;;;4997634;28;20038;-54
2021/12/25 11:50:42;;;;;;;2.92;2.00;;;3.80;99.90;;;;;;4997365;28;20098;-54
2021/12/25 11:53:40;;;;;;;2.20;1.75;;;3.80;99.90;;;;;;4997412;28;20022;-58
2021/12/25 11:58:52;;;;;;;0.82;0.80;;;3.80;99.90;;;;;;4997508;28;20069;-57
2021/12/25 12:01:35;;;;;;;3.70;1.10;;;3.70;99.90;;;;;;4996876;28;20037;-56
2021/12/25 12:04:10;;;;;;;1.40;0.90;;;3.70;99.90;;;;;;4996889;28;20048;-57
2021/12/25 12:06:44;;;;;;;;;;;3.70;99.90;;;;;;4997407;28;20377;-54
2021/12/25 12:09:13;;;;;;;1.10;0.90;;;3.70;99.90;;;;;;4997581;28;19950;-56
2021/12/25 12:11:45;;;;;;;1.88;1.40;;;3.70;99.90;;;;;;4997210;28;20055;-57
2021/12/25 12:14:12;;;;;;;1.55;1.25;;;3.80;99.90;;;;;;4996999;28;20057;-56
2021/12/25 12:16:41;;;;;;;1.70;1.17;;;3.60;99.90;;;;;;4997250;28;20441;-56
2021/12/25 12:19:39;;;;;;;2.00;1.20;;;3.50;99.90;;;;;;4996820;28;20508;-57
2021/12/25 12:22:31;;;;;;;1.30;0.88;;;3.60;99.90;;;;;;4997541;28;20022;-58
2021/12/25 12:27:36;;;;;;;;;;;3.50;99.90;;;;;;4997350;28;20069;-58
2021/12/25 12:30:05;;;;;;;1.17;0.90;;;3.50;99.90;;;;;;4997210;28;19925;-57
2021/12/25 12:32:44;;;;;;;5.50;1.48;;;3.50;99.90;;;;;;4997262;28;20472;-57
2021/12/25 12:35:32;;;;;;;1.50;1.13;;;3.40;99.90;;;;;;4996984;28;20084;-57
2021/12/25 12:38:36;;;;;;;1.58;1.15;;;3.40;99.90;;;;;;4997434;28;20388;-56
2021/12/25 12:41:16;;;;;;;1.92;1.23;;;3.30;99.90;;;;;;4994153;28;20030;-54
2021/12/25 12:44:08;;;;;;;1.70;1.13;;;3.40;99.90;;;;;;4993756;28;20026;-58
2021/12/25 12:46:48;;;;;;;0.80;0.70;;;3.40;99.90;;;;;;4994162;28;20078;-55
2021/12/25 12:49:16;;;;;;;0.98;0.70;;;3.30;99.90;;;;;;4993889;28;20031;-56
2021/12/25 12:51:42;;;;;;;0.73;0.70;;;3.20;99.90;;;;;;4995043;28;20045;-56
2021/12/25 12:54:08;;;;;;;1.00;0.80;;;3.30;99.90;;;;;;4993345;28;20158;-54
2021/12/25 12:56:36;;;;;;;14.52;6.03;;;3.20;99.90;;;;;;4993658;28;20811;-56
2021/12/25 12:59:04;;;;;;;1.25;1.02;;;3.10;99.90;;;;;;4993957;28;20027;-55
2021/12/25 13:01:29;;;;;;;2.15;0.68;;;3.10;99.90;;;;;;4993397;28;20117;-54
2021/12/25 13:03:57;;;;;;;1.02;0.70;;;3.10;99.90;;;;;;4993332;28;20093;-53
2021/12/25 13:06:29;;;;;;;1.33;0.93;;;3.10;99.90;;;;;;4993124;28;20440;-56
2021/12/25 13:08:59;;;;;;;2.20;0.93;;;3.00;99.90;;;;;;4993087;28;20030;-56
2021/12/25 13:11:29;;;;;;;1.27;0.82;;;3.10;99.90;;;;;;4993359;28;20062;-57
2021/12/25 13:13:59;;;;;;;1.90;0.65;;;3.10;99.90;;;;;;4993231;28;20543;-54
2021/12/25 13:16:33;;;;;;;0.65;0.60;;;3.10;99.90;;;;;;4992915;28;20061;-55
2021/12/25 13:19:03;;;;;;;1.60;1.00;;;2.90;99.90;;;;;;4992664;28;20034;-57
2021/12/25 13:21:30;;;;;;;1.17;0.88;;;3.00;99.90;;;;;;4993489;28;20042;-58
2021/12/25 13:24:08;;;;;;;1.60;1.05;;;2.90;99.90;;;;;;4992503;28;20026;-57
2021/12/25 13:26:41;;;;;;;2.20;1.35;;;2.90;99.90;;;;;;4987722;28;20039;-57
2021/12/25 13:29:22;;;;;;;5.83;3.53;;;2.80;99.90;;;;;;4992819;28;20026;-56
2021/12/25 13:31:48;;;;;;;5.78;3.03;;;2.80;99.90;;;;;;4992392;28;20073;-57
2021/12/25 13:34:18;;;;;;;1.35;0.82;;;2.80;99.90;;;;;;4992199;28;20109;-58
2021/12/25 13:36:50;;;;;;;0.90;0.70;;;2.80;99.90;;;;;;4992367;28;20058;-55
2021/12/25 13:39:26;;;;;;;2.00;0.98;;;2.90;99.90;;;;;;4992024;28;20117;-57
2021/12/25 13:41:55;;;;;;;1.65;1.00;;;2.90;99.90;;;;;;4990800;28;20031;-54
2021/12/25 13:44:27;;;;;;;1.70;1.02;;;2.90;99.90;;;;;;4992039;28;20073;-58
2021/12/25 13:47:01;;;;;;;1.23;0.88;;;2.90;99.90;;;;;;4992227;28;20113;-56
2021/12/25 13:49:36;;;;;;;1.75;0.88;;;2.90;99.90;;;;;;4992062;28;20037;-56
2021/12/25 13:52:06;;;;;;;1.00;0.90;;;3.00;99.90;;;;;;4992191;28;20428;-58
2021/12/25 13:54:35;;;;;;;1.45;1.27;;;2.90;99.90;;;;;;4992510;28;20121;-58
2021/12/25 13:57:01;;;;;;;2.45;1.23;;;2.80;99.90;;;;;;4992273;28;20121;-56
2021/12/25 13:59:27;;;;;;;1.65;0.85;;;2.90;99.90;;;;;;4992591;28;20018;-57
2021/12/25 14:02:03;;;;;;;1.13;0.88;;;2.80;99.90;;;;;;4992569;28;20034;-57
2021/12/25 14:04:30;;;;;;;0.80;0.75;;;2.60;99.90;;;;;;4978258;28;20523;-57
2021/12/25 14:06:56;;;;;;;1.98;1.42;;;2.60;99.90;;;;;;4992398;28;20113;-56
2021/12/25 14:09:22;;;;;;;1.70;1.05;;;2.60;99.90;;;;;;4992699;28;20109;-57
2021/12/25 14:11:49;;;;;;;1.75;1.02;;;2.60;99.90;;;;;;4991918;28;20057;-55
2021/12/25 14:14:17;;;;;;;2.15;1.48;;;2.70;99.90;;;;;;4992119;28;20042;-57
2021/12/25 14:16:43;;;;;;;1.85;1.15;;;2.60;99.90;;;;;;4992278;28;20037;-56
2021/12/25 14:19:11;;;;;;;2.03;0.73;;;2.70;99.90;;;;;;4992333;28;20038;-57